Latest Weather Observations for Trepell

IDQ60801

Issued at 5:35 pm EST Friday 31 October 2014 (issued every 30 minutes, with the page automatically refreshed every 10 minutes)

About weather observations | Map of weather stations | Latest weather observations for QLD | Other Formats
Station Details ID: 037036 Name: TREPELL AIRPORT Lat: -21.84 Lon: 140.89 Height: 266.2 m
Data from the previous 72 hours. | See also: Recent months at Trepell
Date/Time
EST
Temp
°C
App
Temp
°C
Dew
Point
Rel
Hum
%
Delta-T
°C
Wind Press
QNH
hPa
Press
MSL
hPa
Rain
since 9 am
mm
Dir
 
Spd
km/h
Gust
km/h
Spd
kts
Gust
kts
31/05:30pm 39.6 35.4 -0.8 8 20.6 WSW 11 20 6 11 1006.2 1004.6 0.0
31/05:00pm 40.9 35.1 0.2 8 21.2 WSW 20 28 11 15 1006.2 1004.6 0.0
31/04:30pm 40.0 34.7 -0.5 8 20.7 S 17 24 9 13 1006.0 1004.4 0.0
31/04:00pm 40.6 35.0 0.0 8 21.0 SW 19 26 10 14 1006.2 1004.6 0.0
31/03:30pm 40.4 35.9 -0.2 8 20.9 W 13 19 7 10 1006.3 1004.7 0.0
31/03:00pm 41.2 34.8 -1.4 7 21.7 W 22 32 12 17 1006.5 1004.9 0.0
31/02:30pm 40.6 34.2 -1.9 7 21.3 WNW 22 35 12 19 1006.7 1005.1 0.0
31/02:00pm 41.1 37.2 -1.5 7 21.6 NE 9 15 5 8 1007.2 1005.6 0.0
31/01:30pm 39.4 35.0 -2.7 7 20.7 NNW 11 17 6 9 1007.7 1006.1 0.0
31/01:00pm 39.3 34.1 -2.8 7 20.7 NNW 15 24 8 13 1008.3 1006.6 0.0
31/12:30pm 38.9 33.3 -3.1 7 20.5 NE 17 22 9 12 1008.9 1007.3 0.0
31/12:00pm 38.2 33.7 -3.6 7 20.2 NNW 11 19 6 10 1009.6 1008.0 0.0
31/11:30am 37.6 33.4 -4.0 7 19.8 SSW 9 17 5 9 1010.0 1008.4 0.0
31/11:00am 37.7 32.4 -3.9 7 19.9 E 15 20 8 11 1010.3 1008.7 0.0
31/10:30am 37.8 33.6 -3.9 7 19.9 ESE 9 17 5 9 1010.5 1008.9 0.0
31/10:00am 36.9 32.8 -2.7 8 19.2 ESE 9 15 5 8 1010.6 1009.0 0.0
31/09:30am 35.4 31.4 -5.6 7 18.8 SSE 7 13 4 7 1010.7 1009.1 0.0
31/09:00am 33.2 28.5 -5.5 8 17.5 SSE 11 15 6 8 1010.8 1009.2 0.0
31/08:30am 31.6 26.4 -6.6 8 16.7 S 13 19 7 10 1010.8 1009.2 0.0
31/08:00am 30.3 25.5 -6.1 9 15.9 S 11 17 6 9 1010.8 1009.2 0.0
31/07:30am 27.8 23.3 -6.6 10 14.6 SW 9 13 5 7 1010.5 1008.9 0.0
31/07:00am 25.3 20.8 -7.2 11 13.3 W 9 9 5 5 1010.4 1008.8 0.0
31/06:30am 22.5 17.5 -8.3 12 12.0 W 11 11 6 6 1010.1 1008.5 0.0
31/06:00am 22.4 17.4 -8.4 12 12.0 WSW 11 13 6 7 1009.8 1008.2 0.0
31/05:30am 22.1 17.2 -7.6 13 11.7 WSW 11 13 6 7 1009.3 1007.7 0.0
31/05:00am 23.0 17.6 -7.9 12 12.2 WSW 13 17 7 9 1009.2 1007.6 0.0
31/04:30am 22.4 17.4 -8.4 12 12.0 WSW 11 13 6 7 1009.0 1007.4 0.0
31/04:00am 22.9 18.3 -8.0 12 12.2 WSW 9 11 5 6 1009.0 1007.4 0.0
31/03:30am 22.7 17.7 -8.1 12 12.1 SW 11 13 6 7 1008.9 1007.3 0.0
31/03:00am 23.1 18.1 -7.8 12 12.3 SW 11 13 6 7 1008.8 1007.2 0.0
31/02:30am 23.8 18.4 -8.4 11 12.7 SW 13 15 7 8 1008.8 1007.2 0.0
31/02:00am 23.8 18.8 -8.4 11 12.7 WSW 11 13 6 7 1008.8 1007.2 0.0
31/01:30am 24.2 18.8 -8.1 11 12.8 SW 13 15 7 8 1009.0 1007.4 0.0
31/01:00am 26.1 20.4 -7.9 10 13.9 SW 15 17 8 9 1009.2 1007.6 0.0
31/12:30am 27.8 21.7 -7.9 9 14.8 WSW 17 20 9 11 1009.4 1007.8 0.0
31/12:00am 28.0 22.7 -7.8 9 14.9 WSW 13 17 7 9 1009.7 1008.1 0.0
 
Date/Time
EST
Temp
°C
App
Temp
°C
Dew
Point
Rel
Hum
%
Delta-T
°C
Wind Press
QNH
hPa
Press
MSL
hPa
Rain
since 9 am
mm
Dir
 
Spd
km/h
Gust
km/h
Spd
kts
Gust
kts
30/11:30pm 27.9 22.2 -7.9 9 14.8 WSW 15 19 8 10 1009.9 1008.3 0.0
30/11:00pm 27.9 22.5 -7.9 9 14.8 W 13 19 7 10 1010.0 1008.4 0.0
30/10:30pm 27.4 22.4 -8.2 9 14.6 W 11 13 6 7 1010.0 1008.4 0.0
30/10:00pm 28.6 23.2 -8.8 8 15.3 WSW 13 15 7 8 1009.9 1008.3 0.0
30/09:30pm 29.5 24.5 -8.2 8 15.7 WSW 11 13 6 7 1009.7 1008.1 0.0
30/09:00pm 29.3 24.3 -8.3 8 15.7 W 11 13 6 7 1009.5 1007.9 0.0
30/08:30pm 31.0 26.3 -8.8 7 16.7 WSW 9 9 5 5 1009.2 1007.6 0.0
30/08:00pm 31.7 26.7 -8.3 7 17.0 WSW 11 13 6 7 1008.9 1007.3 0.0
30/07:30pm 32.5 27.4 -9.7 6 17.6 SW 11 11 6 6 1008.6 1006.9 0.0
30/07:00pm 34.0 29.3 -8.6 6 18.4 SW 9 11 5 6 1008.3 1006.6 0.0
30/06:30pm 36.3 31.0 -7.0 6 19.5 S 13 17 7 9 1007.9 1006.3 0.0
30/06:00pm 37.6 33.0 -8.4 5 20.5 SSW 9 15 5 8 1007.7 1006.1 0.0
30/05:30pm 38.5 32.8 -7.8 5 21.0 SW 15 22 8 12 1007.5 1005.9 0.0
30/05:00pm 38.6 34.0 -7.7 5 21.1 SW 9 19 5 10 1007.4 1005.8 0.0
30/04:30pm 38.8 33.1 -7.6 5 21.1 S 15 24 8 13 1007.4 1005.8 0.0
30/04:00pm 39.1 33.4 -7.4 5 21.3 S 15 26 8 14 1007.5 1005.9 0.0
30/03:30pm 38.4 32.1 -10.7 4 21.2 S 17 26 9 14 1007.7 1006.1 0.0
30/03:00pm 39.7 31.3 -9.8 4 22.0 SSW 28 35 15 19 1007.9 1006.3 0.0
30/02:30pm 38.0 33.0 -8.1 5 20.7 WSW 11 19 6 10 1008.5 1006.8 0.0
30/02:00pm 38.7 33.8 -7.6 5 21.1 SSW 11 19 6 10 1008.8 1007.2 0.0
30/01:30pm 37.6 32.6 -8.4 5 20.5 SSW 11 19 6 10 1009.2 1007.6 0.0
30/01:00pm 38.0 33.0 -8.1 5 20.7 SE 11 20 6 11 1009.8 1008.2 0.0
30/12:30pm 36.6 31.1 -9.1 5 20.0 SE 13 20 7 11 1010.4 1008.8 0.0
30/12:00pm 37.0 32.5 -6.5 6 19.9 E 9 17 5 9 1011.0 1009.4 0.0
30/11:30am 36.1 30.8 -7.1 6 19.4 ESE 13 20 7 11 1011.5 1009.9 0.0
30/11:00am 35.7 32.3 -5.4 7 18.9 NE 4 9 2 5 1012.0 1010.4 0.0
30/10:30am 34.6 30.7 -4.4 8 18.1 SE 7 11 4 6 1012.4 1010.8 0.0
30/10:00am 33.3 30.1 -3.8 9 17.2 ENE 4 9 2 5 1012.6 1011.0 0.0
30/09:30am 31.0 27.0 -5.5 9 16.2 SW 7 9 4 5 1013.0 1011.4 0.0
30/09:00am 29.8 26.0 -5.1 10 15.4 SSW 6 9 3 5 1013.2 1011.6 0.0
30/08:30am 28.0 23.9 -6.4 10 14.6 NW 7 11 4 6 1013.2 1011.6 0.0
30/08:00am 26.1 22.5 -7.9 10 13.8 WNW 4 7 2 4 1013.2 1011.6 0.0
30/07:30am 25.7 21.6 -8.2 10 13.7 ENE 6 11 3 6 1013.1 1011.5 0.0
30/07:00am 23.8 19.2 -8.4 11 12.7 N 9 13 5 7 1012.7 1011.1 0.0
30/06:30am 22.1 16.3 -8.6 12 11.8 WSW 15 17 8 9 1011.8 1010.2 0.0
30/06:00am 20.8 14.9 -9.6 12 11.3 WSW 15 17 8 9 1011.5 1009.9 0.0
30/05:30am 20.7 15.2 -9.7 12 11.3 SW 13 15 7 8 1011.3 1009.7 0.0
30/05:00am 21.0 15.4 -10.5 11 11.6 SW 13 15 7 8 1011.2 1009.6 0.0
30/04:30am 21.5 15.6 -10.2 11 11.8 SW 15 17 8 9 1011.2 1009.6 0.0
30/04:00am 21.8 15.9 -9.9 11 11.9 SW 15 17 8 9 1011.2 1009.6 0.0
30/03:30am 22.5 16.6 -10.6 10 12.3 SW 15 17 8 9 1011.2 1009.6 0.0
30/03:00am 22.7 16.8 -10.4 10 12.4 SW 15 17 8 9 1011.2 1009.6 0.0
30/02:30am 23.3 18.2 -10.0 10 12.7 SW 11 13 6 7 1011.3 1009.7 0.0
30/02:00am 23.8 19.4 -9.6 10 12.9 SW 7 9 4 5 1011.6 1010.0 0.0
30/01:30am 23.9 19.2 -9.5 10 12.9 SSW 9 11 5 6 1012.0 1010.4 0.0
30/01:00am 24.7 19.9 -10.3 9 13.4 S 9 13 5 7 1012.2 1010.6 0.0
30/12:30am 25.3 19.8 -9.8 9 13.7 SW 13 17 7 9 1012.4 1010.8 0.0
30/12:00am 25.2 20.1 -9.9 9 13.6 SW 11 15 6 8 1012.5 1010.9 0.0
 
Date/Time
EST
Temp
°C
App
Temp
°C
Dew
Point
Rel
Hum
%
Delta-T
°C
Wind Press
QNH
hPa
Press
MSL
hPa
Rain
since 9 am
mm
Dir
 
Spd
km/h
Gust
km/h
Spd
kts
Gust
kts
29/11:30pm 26.4 21.0 -9.0 9 14.2 SSW 13 15 7 8 1012.6 1011.0 0.0
29/11:00pm 27.0 21.6 -8.5 9 14.4 SSW 13 15 7 8 1012.8 1011.2 0.0
29/10:30pm 27.1 22.1 -8.5 9 14.5 S 11 15 6 8 1012.8 1011.2 0.0
29/10:00pm 28.5 23.2 -7.4 9 15.1 SSW 13 17 7 9 1012.7 1011.1 0.0
29/09:30pm 28.7 23.8 -7.3 9 15.2 SSW 11 13 6 7 1012.4 1010.8 0.0
29/09:00pm 29.9 24.5 -7.9 8 15.9 SW 13 17 7 9 1012.1 1010.5 0.0
29/08:30pm 31.1 25.1 -7.0 8 16.5 SSW 17 19 9 10 1011.7 1010.1 0.0
29/08:00pm 32.2 26.5 -7.9 7 17.2 SSW 15 20 8 11 1011.4 1009.8 0.0
29/07:30pm 33.1 27.4 -7.3 7 17.7 SSW 15 17 8 9 1011.1 1009.5 0.0
29/07:00pm 34.1 28.9 -6.5 7 18.2 SSW 13 17 7 9 1010.9 1009.3 0.0
29/06:30pm 36.1 29.7 -7.1 6 19.4 SSW 19 22 10 12 1010.6 1009.0 0.0
29/06:00pm 37.3 31.3 -6.3 6 20.0 S 17 26 9 14 1010.2 1008.6 0.0
29/05:30pm 38.0 31.5 -5.8 6 20.4 SSW 20 28 11 15 1010.0 1008.4 0.0
29/05:00pm 38.5 32.2 -5.4 6 20.6 SW 19 30 10 16 1009.9 1008.3 0.0
29/04:30pm 38.4 32.1 -5.5 6 20.6 S 19 28 10 15 1009.9 1008.3 0.0
29/04:00pm 39.1 34.4 -5.0 6 21.0 S 11 20 6 11 1010.0 1008.4 0.0
29/03:30pm 38.4 31.9 -5.5 6 20.6 S 20 28 11 15 1010.4 1008.8 0.0
29/03:00pm 38.5 32.6 -5.4 6 20.6 SSW 17 28 9 15 1010.6 1009.0 0.0
29/02:30pm 38.5 33.8 -5.4 6 20.6 S 11 24 6 13 1011.1 1009.5 0.0
29/02:00pm 38.8 32.6 -5.2 6 20.8 SE 19 30 10 16 1011.4 1009.8 0.0
29/01:30pm 39.5 33.0 -2.6 7 20.8 SSE 22 35 12 19 1011.8 1010.2 0.0
29/01:00pm 38.8 34.3 -3.2 7 20.5 SSE 11 24 6 13 1012.3 1010.7 0.0
29/12:30pm 37.3 31.2 -4.2 7 19.7 S 19 35 10 19 1012.8 1011.2 0.0
29/12:00pm 37.0 30.3 -4.4 7 19.5 SSE 22 28 12 15 1013.2 1011.6 0.0
29/11:30am 36.8 31.2 -2.8 8 19.1 ESE 17 26 9 14 1013.6 1012.0 0.0
29/11:00am 35.6 29.5 -3.7 8 18.6 SE 19 28 10 15 1014.1 1012.5 0.0
29/10:30am 35.2 29.1 -4.0 8 18.4 SE 19 24 10 13 1014.4 1012.8 0.0
29/10:00am 33.7 27.9 -5.1 8 17.7 ESE 17 24 9 13 1014.7 1013.1 0.0
29/09:30am 33.1 27.4 -4.0 9 17.1 ESE 17 28 9 15 1014.9 1013.3 0.0
29/09:00am 31.8 25.4 -4.9 9 16.5 ESE 20 26 11 14 1015.0 1013.4 0.0
29/08:30am 30.6 24.2 -4.5 10 15.8 SE 20 24 11 13 1015.3 1013.8 0.0
29/08:00am 27.3 22.5 -5.7 11 14.1 SSE 11 17 6 9 1015.1 1013.5 0.0
29/07:30am 25.7 20.9 -5.8 12 13.3 S 11 17 6 9 1014.9 1013.3 0.0
29/07:00am 23.9 19.5 -6.2 13 12.4 SW 9 13 5 7 1014.8 1013.2 0.0
29/06:30am 22.1 17.2 -6.6 14 11.5 SW 11 15 6 8 1014.4 1012.8 0.0
29/06:00am 21.4 16.6 -6.3 15 11.1 SW 11 13 6 7 1014.0 1012.4 0.0
29/05:30am 21.8 16.6 -5.9 15 11.2 SSW 13 17 7 9 1013.6 1012.0 0.0
29/05:00am 22.1 16.9 -5.7 15 11.3 SSW 13 17 7 9 1013.3 1011.7 0.0
29/04:30am 22.0 17.3 -4.9 16 11.1 SSW 11 15 6 8 1013.0 1011.4 0.0
29/04:00am 22.7 17.6 -5.2 15 11.6 SSW 13 17 7 9 1013.0 1011.4 0.0
29/03:30am 23.0 17.9 -5.0 15 11.7 SSW 13 15 7 8 1012.7 1011.1 0.0
29/03:00am 23.3 18.6 -4.8 15 11.8 SSW 11 13 6 7 1012.5 1010.9 0.0
29/02:30am 24.4 19.3 -4.8 14 12.4 SSW 13 15 7 8 1012.6 1011.0 0.0
29/02:00am 24.5 19.5 -4.7 14 12.4 SSW 13 15 7 8 1012.7 1011.1 0.0
29/01:30am 25.3 21.1 -4.1 14 12.7 SSW 9 15 5 8 1012.9 1011.3 0.0
29/01:00am 25.9 21.0 -3.6 14 13.0 SSW 13 17 7 9 1012.8 1011.2 0.0
29/12:30am 26.7 21.5 -3.0 14 13.3 SSW 15 17 8 9 1013.0 1011.4 0.0
29/12:00am 27.4 22.2 -2.4 14 13.6 SSW 15 17 8 9 1013.1 1011.5 0.0
 
Date/Time
EST
Temp
°C
App
Temp
°C
Dew
Point
Rel
Hum
%
Delta-T
°C
Wind Press
QNH
hPa
Press
MSL
hPa
Rain
since 9 am
mm
Dir
 
Spd
km/h
Gust
km/h
Spd
kts
Gust
kts
28/11:30pm 28.3 22.7 -2.7 13 14.1 SSW 17 20 9 11 1013.2 1011.6 0.0
28/11:00pm 28.9 23.4 -2.3 13 14.4 SSW 17 20 9 11 1013.2 1011.6 0.0
28/10:30pm 29.5 24.6 -0.8 14 14.4 SSW 15 19 8 10 1013.1 1011.5 0.0
28/10:00pm 30.3 25.3 -1.2 13 15.0 SSW 15 20 8 11 1013.0 1011.4 0.0
28/09:30pm 31.3 26.0 -0.4 13 15.4 SSW 17 19 9 10 1012.9 1011.3 0.0
28/09:00pm 32.2 27.0 0.3 13 15.7 S 17 22 9 12 1012.6 1011.0 0.0
28/08:30pm 32.2 27.4 0.3 13 15.7 SSW 15 19 8 10 1012.1 1010.5 0.0
28/08:00pm 33.2 28.9 1.1 13 16.2 S 13 17 7 9 1011.7 1010.1 0.0
28/07:30pm 34.5 30.0 2.1 13 16.7 S 15 19 8 10 1011.4 1009.8 0.0
28/07:00pm 36.0 30.5 2.1 12 17.6 S 20 26 11 14 1011.1 1009.5 0.0
28/06:30pm 36.9 31.8 2.8 12 18.0 S 19 22 10 12 1010.8 1009.2 0.0
28/06:00pm 37.5 32.8 3.3 12 18.3 S 17 20 9 11 1010.6 1009.0 0.0

Other Formats:

Comma delimited format used in spreadsheet applications
http://www.bom.gov.au/fwo/IDQ60801/IDQ60801.94338.axf

JavaScript Object Notation format (JSON) in row-major order
http://www.bom.gov.au/fwo/IDQ60801/IDQ60801.94338.json